Time;durP1;ratioP1;P1;durP2;ratioP2;P2;SDS_P1;SDS_P2;PMS_P1;PMS_P2;Temp;Humidity;BMP_temperature;BMP_pressure;BME280_temperature;BME280_humidity;BME280_pressure;Samples;Min_cycle;Max_cycle;Signal;HPM_P1;HPM_P2
2023/07/07 00:00:10;;;;;;;;;;;15.50;99.90;;;;;;5022296;28;19909;-78
2023/07/07 00:02:36;;;;;;;;;;;15.50;99.90;;;;;;5001036;28;19960;-78
2023/07/07 00:05:01;;;;;;;;;;;15.40;99.90;;;;;;5036522;28;20012;-80
2023/07/07 00:07:27;;;;;;;;;;;15.40;99.90;;;;;;5020982;28;20527;-80
2023/07/07 00:09:52;;;;;;;;;;;15.40;99.90;;;;;;5003728;28;19921;-80
2023/07/07 00:12:18;;;;;;;;;;;15.30;99.90;;;;;;5004739;28;19921;-80
2023/07/07 00:14:43;;;;;;;;;;;15.30;99.90;;;;;;4999701;28;19913;-78
2023/07/07 00:17:11;;;;;;;;;;;15.30;99.90;;;;;;5004616;28;19948;-78
2023/07/07 00:19:37;;;;;;;;;;;15.40;99.90;;;;;;4996636;28;19919;-78
2023/07/07 00:22:05;;;;;;;;;;;15.40;99.90;;;;;;5022029;28;19917;-78
2023/07/07 00:24:34;;;;;;;;;;;15.40;99.90;;;;;;5004489;28;19917;-77
2023/07/07 00:27:00;;;;;;;;;;;15.40;99.90;;;;;;4999290;28;19920;-78
2023/07/07 00:29:25;;;;;;;;;;;15.30;99.90;;;;;;5022280;28;20276;-79
2023/07/07 00:31:51;;;;;;;;;;;15.30;99.90;;;;;;4999538;28;20489;-79
2023/07/07 00:34:18;;;;;;;;;;;15.30;99.90;;;;;;5022627;28;19917;-79
2023/07/07 00:36:45;;;;;;;;;;;15.30;99.90;;;;;;5015256;28;19913;-79
2023/07/07 00:39:11;;;;;;;;;;;15.30;99.90;;;;;;5022494;28;20369;-79
2023/07/07 00:41:36;;;;;;;;;;;15.30;99.90;;;;;;5020601;28;19918;-79
2023/07/07 00:44:04;;;;;;;;;;;15.30;99.90;;;;;;5021238;28;19917;-79
2023/07/07 00:46:30;;;;;;;;;;;15.20;99.90;;;;;;5002319;28;19909;-79
2023/07/07 00:48:56;;;;;;;;;;;15.20;99.90;;;;;;5021707;28;19924;-79
2023/07/07 00:51:24;;;;;;;;;;;15.20;99.90;;;;;;4998103;28;20142;-79
2023/07/07 00:53:51;;;;;;;;;;;15.10;99.90;;;;;;5002908;28;20418;-79
2023/07/07 00:56:24;;;;;;;;;;;15.10;99.90;;;;;;5020950;28;19948;-79
2023/07/07 00:58:50;;;;;;;;;;;15.10;99.90;;;;;;5035825;28;19920;-79
2023/07/07 01:01:17;;;;;;;;;;;15.10;99.90;;;;;;5036054;28;19974;-79
2023/07/07 01:03:56;;;;;;;;;;;15.10;99.90;;;;;;4998111;28;19963;-78
2023/07/07 01:06:23;;;;;;;;;;;15.10;99.90;;;;;;5003754;28;19909;-79
2023/07/07 01:08:54;;;;;;;;;;;15.00;99.90;;;;;;4998958;28;19917;-79
2023/07/07 01:11:20;;;;;;;;;;;15.00;99.90;;;;;;5000502;28;19921;-80
2023/07/07 01:13:45;;;;;;;;;;;15.00;99.90;;;;;;4998421;28;19923;-80
2023/07/07 01:16:11;;;;;;;;;;;14.90;99.90;;;;;;5021676;28;19908;-80
2023/07/07 01:19:03;;;;;;;;;;;14.90;99.90;;;;;;5021807;28;19944;-80
2023/07/07 01:21:39;;;;;;;;;;;14.90;99.90;;;;;;4999811;28;20518;-79
2023/07/07 01:24:18;;;;;;;;;;;14.90;99.90;;;;;;5020107;28;19983;-79
2023/07/07 01:26:59;;;;;;;;;;;14.90;99.90;;;;;;5021803;28;19913;-79
2023/07/07 01:29:38;;;;;;;;;;;14.80;99.90;;;;;;5019702;28;19927;-79
2023/07/07 01:32:06;;;;;;;;;;;14.80;99.90;;;;;;5020051;28;22263;-80
2023/07/07 01:34:32;;;;;;;;;;;14.70;99.90;;;;;;5037268;28;20357;-80
2023/07/07 01:36:57;;;;;;;;;;;14.70;99.90;;;;;;5021460;28;19920;-78
2023/07/07 01:39:24;;;;;;;;;;;14.70;99.90;;;;;;5021403;28;19924;-78
2023/07/07 01:41:53;;;;;;;;;;;14.60;99.90;;;;;;5001153;28;19957;-79
2023/07/07 01:44:25;;;;;;;;;;;14.60;99.90;;;;;;5030026;28;20404;-79
2023/07/07 01:47:01;;;;;;;;;;;14.60;99.90;;;;;;5029633;28;20579;-80
2023/07/07 01:49:37;;;;;;;;;;;14.60;99.90;;;;;;5045947;28;19917;-79
2023/07/07 01:52:05;;;;;;;;;;;14.50;99.90;;;;;;5005160;28;19917;-79
2023/07/07 01:54:33;;;;;;;;;;;14.50;99.90;;;;;;5022179;28;20361;-79
2023/07/07 01:57:00;;;;;;;;;;;14.50;99.90;;;;;;4998082;28;19928;-80
2023/07/07 01:59:25;;;;;;;;;;;14.40;99.90;;;;;;5001095;28;19913;-80
2023/07/07 02:01:51;;;;;;;;;;;14.40;99.90;;;;;;5004177;28;19919;-79
2023/07/07 02:04:17;;;;;;;;;;;14.40;99.90;;;;;;5036440;28;20375;-79
2023/07/07 02:06:42;;;;;;;;;;;14.30;99.90;;;;;;5021868;28;19967;-79
2023/07/07 02:09:08;;;;;;;;;;;14.30;99.90;;;;;;5003614;28;19917;-80
2023/07/07 02:11:33;;;;;;;;;;;14.20;99.90;;;;;;5036308;28;19921;-79
2023/07/07 02:14:00;;;;;;;;;;;14.20;99.90;;;;;;5020854;28;19921;-80
2023/07/07 02:16:26;;;;;;;;;;;14.20;99.90;;;;;;5021173;28;19920;-79
2023/07/07 02:18:52;;;;;;;;;;;14.10;99.90;;;;;;5019060;28;19917;-79
2023/07/07 02:21:18;;;;;;;;;;;14.10;99.90;;;;;;5024553;28;19913;-78
2023/07/07 02:23:44;;;;;;;;;;;14.10;99.90;;;;;;5024481;28;19921;-79
2023/07/07 02:26:10;;;;;;;;;;;14.10;99.90;;;;;;5004518;28;20352;-79
2023/07/07 02:28:36;;;;;;;;;;;14.00;99.90;;;;;;5021129;28;19921;-79
2023/07/07 02:31:02;;;;;;;;;;;14.00;99.90;;;;;;5024530;28;19917;-79
2023/07/07 02:33:36;;;;;;;;;;;14.00;99.90;;;;;;5024309;28;19917;-79
2023/07/07 02:36:03;;;;;;;;;;;14.00;99.90;;;;;;5001283;28;19924;-79
2023/07/07 02:38:29;;;;;;;;;;;14.00;99.90;;;;;;5022915;28;19913;-79
2023/07/07 02:40:55;;;;;;;;;;;14.00;99.90;;;;;;5001949;28;19918;-79
2023/07/07 02:43:20;;;;;;;;;;;14.00;99.90;;;;;;5025014;28;20379;-79
2023/07/07 02:45:46;;;;;;;;;;;14.00;99.90;;;;;;5024980;28;19925;-79
2023/07/07 02:48:12;;;;;;;;;;;13.90;99.90;;;;;;5003758;28;19952;-79
2023/07/07 02:50:38;;;;;;;;;;;13.90;99.90;;;;;;5025013;28;20000;-79
2023/07/07 02:53:05;;;;;;;;;;;13.90;99.90;;;;;;5038802;28;20046;-79
2023/07/07 02:55:30;;;;;;;;;;;13.90;99.90;;;;;;5001698;28;19999;-79
2023/07/07 02:57:57;;;;;;;;;;;13.80;99.90;;;;;;5005593;28;20464;-79
2023/07/07 03:00:24;;;;;;;;;;;13.80;99.90;;;;;;5038399;28;20494;-78
2023/07/07 03:02:51;;;;;;;;;;;13.80;99.90;;;;;;5001089;28;19924;-79
2023/07/07 03:05:26;;;;;;;;;;;13.80;99.90;;;;;;5024151;28;19913;-79
2023/07/07 03:07:51;;;;;;;;;;;13.80;99.90;;;;;;5023562;28;19913;-79
2023/07/07 03:10:17;;;;;;;;;;;13.80;99.90;;;;;;5024424;28;20351;-79
2023/07/07 03:12:42;;;;;;;;;;;13.80;99.90;;;;;;5024104;28;20463;-79
2023/07/07 03:15:08;;;;;;;;;;;13.80;99.90;;;;;;5038888;28;19948;-79
2023/07/07 03:17:35;;;;;;;;;;;13.70;99.90;;;;;;5039201;28;19915;-79
2023/07/07 03:20:00;;;;;;;;;;;13.70;99.90;;;;;;4999511;28;19960;-79
2023/07/07 03:22:26;;;;;;;;;;;13.70;99.90;;;;;;5022107;28;20008;-79
2023/07/07 03:24:51;;;;;;;;;;;13.70;99.90;;;;;;5024537;28;20331;-79
2023/07/07 03:27:17;;;;;;;;;;;13.70;99.90;;;;;;5000572;28;19909;-79
2023/07/07 03:29:42;;;;;;;;;;;13.70;99.90;;;;;;5020854;28;22225;-79
2023/07/07 03:32:09;;;;;;;;;;;13.60;99.90;;;;;;5022340;28;20800;-79
2023/07/07 03:34:37;;;;;;;;;;;13.60;99.90;;;;;;5023536;28;20391;-79
2023/07/07 03:37:03;;;;;;;;;;;13.60;99.90;;;;;;5023350;28;19917;-79
2023/07/07 03:39:29;;;;;;;;;;;13.60;99.90;;;;;;5000025;28;19913;-78
2023/07/07 03:41:55;;;;;;;;;;;13.70;99.90;;;;;;5023121;28;19920;-79
2023/07/07 03:44:20;;;;;;;;;;;13.70;99.90;;;;;;5022116;28;19917;-79
2023/07/07 03:46:46;;;;;;;;;;;13.70;99.90;;;;;;5019906;28;22334;-78
2023/07/07 03:49:11;;;;;;;;;;;13.70;99.90;;;;;;5023295;28;19920;-79
2023/07/07 03:51:37;;;;;;;;;;;13.70;99.90;;;;;;5023320;28;20265;-79
2023/07/07 03:54:03;;;;;;;;;;;13.70;99.90;;;;;;5023218;28;19920;-79
2023/07/07 03:56:29;;;;;;;;;;;13.60;99.90;;;;;;5000229;28;19909;-78
2023/07/07 03:58:54;;;;;;;;;;;13.70;99.90;;;;;;5022221;28;19968;-78
2023/07/07 04:01:20;;;;;;;;;;;13.70;99.90;;;;;;5001179;28;20388;-78
2023/07/07 04:03:46;;;;;;;;;;;13.70;99.90;;;;;;5000098;28;19988;-79
2023/07/07 04:06:13;;;;;;;;;;;13.70;99.90;;;;;;5023374;28;19913;-79
2023/07/07 04:08:38;;;;;;;;;;;13.70;99.90;;;;;;5023325;28;20432;-79
2023/07/07 04:11:09;;;;;;;;;;;13.70;99.90;;;;;;5000369;28;19947;-79
2023/07/07 04:13:35;;;;;;;;;;;13.70;99.90;;;;;;5038399;28;19943;-79
2023/07/07 04:16:02;;;;;;;;;;;13.80;99.90;;;;;;5037165;28;19974;-78
2023/07/07 04:18:31;;;;;;;;;;;13.80;99.90;;;;;;5023568;28;20343;-79
2023/07/07 04:20:57;;;;;;;;;;;13.70;99.90;;;;;;4998572;28;19916;-78
2023/07/07 04:23:23;;;;;;;;;;;13.80;99.90;;;;;;5022529;28;19917;-78
2023/07/07 04:25:50;;;;;;;;;;;13.80;99.90;;;;;;4998248;28;19923;-78
2023/07/07 04:28:15;;;;;;;;;;;13.80;99.90;;;;;;5005351;28;20011;-78
2023/07/07 04:30:41;;;;;;;;;;;13.80;99.90;;;;;;5022018;28;19923;-78
2023/07/07 04:33:06;;;;;;;;;;;13.80;99.90;;;;;;5021541;28;20403;-79
2023/07/07 04:35:35;;;;;;;;;;;13.90;99.90;;;;;;5038214;28;19921;-78
2023/07/07 04:38:01;;;;;;;;;;;14.00;99.90;;;;;;5021438;28;19909;-78
2023/07/07 04:40:29;;;;;;;;;;;14.00;99.90;;;;;;5022768;28;19924;-78
2023/07/07 04:42:58;;;;;;;;;;;14.00;99.90;;;;;;4996137;28;20004;-78
2023/07/07 04:45:23;;;;;;;;;;;14.10;99.90;;;;;;5021605;28;19964;-78
2023/07/07 04:47:49;;;;;;;;;;;14.10;99.90;;;;;;5021079;28;19956;-78
2023/07/07 04:50:15;;;;;;;;;;;14.20;99.90;;;;;;5022610;28;19921;-79
2023/07/07 04:52:42;;;;;;;;;;;14.20;99.90;;;;;;5021403;28;19909;-79
2023/07/07 04:55:12;;;;;;;;;;;14.30;99.90;;;;;;5021959;28;19925;-78
2023/07/07 04:57:44;;;;;;;;;;;14.30;99.90;;;;;;5021816;28;19963;-79
2023/07/07 05:00:15;;;;;;;;;;;14.40;99.90;;;;;;5020951;28;19913;-79
2023/07/07 05:02:46;;;;;;;;;;;14.40;99.90;;;;;;4999541;28;19916;-79
2023/07/07 05:05:14;;;;;;;;;;;14.50;99.90;;;;;;4998016;28;19991;-79
2023/07/07 05:07:40;;;;;;;;;;;14.50;99.90;;;;;;5019800;28;19917;-78
2023/07/07 05:10:08;;;;;;;;;;;14.60;99.90;;;;;;5016772;28;20447;-79
2023/07/07 05:12:34;;;;;;;;;;;14.70;99.90;;;;;;5020807;28;19912;-78
2023/07/07 05:15:00;;;;;;;;;;;14.80;99.90;;;;;;5004251;28;20392;-78
2023/07/07 05:17:27;;;;;;;;;;;14.80;99.90;;;;;;4999332;28;19913;-78
2023/07/07 05:19:53;;;;;;;;;;;14.90;99.90;;;;;;5003791;28;19917;-79
2023/07/07 05:22:22;;;;;;;;;;;14.90;99.90;;;;;;5022579;28;19998;-78
2023/07/07 05:24:47;;;;;;;;;;;15.00;99.90;;;;;;5000906;28;19917;-78
2023/07/07 05:27:18;;;;;;;;;;;15.10;99.90;;;;;;5022242;28;19971;-79
2023/07/07 05:29:44;;;;;;;;;;;15.10;99.90;;;;;;5021469;28;19971;-79
2023/07/07 05:32:09;;;;;;;;;;;15.30;99.90;;;;;;5016769;28;20332;-79
2023/07/07 05:34:35;;;;;;;;;;;15.40;99.90;;;;;;5004497;28;19917;-79
2023/07/07 05:37:00;;;;;;;;;;;15.40;99.90;;;;;;5016542;28;19993;-79
2023/07/07 05:39:26;;;;;;;;;;;15.50;99.90;;;;;;5022402;28;19908;-79
2023/07/07 05:41:51;;;;;;;;;;;15.60;99.90;;;;;;5036266;28;20296;-79
2023/07/07 05:44:17;;;;;;;;;;;15.70;99.90;;;;;;5005671;28;19923;-79
2023/07/07 05:46:43;;;;;;;;;;;15.80;99.90;;;;;;5021977;28;19924;-80
2023/07/07 05:49:10;;;;;;;;;;;15.90;99.90;;;;;;5021880;28;19913;-79
2023/07/07 05:51:36;;;;;;;;;;;16.00;99.90;;;;;;5021195;28;19925;-79
2023/07/07 05:54:04;;;;;;;;;;;16.10;99.90;;;;;;4999005;28;19928;-79
2023/07/07 05:56:30;;;;;;;;;;;16.10;99.90;;;;;;5002168;28;19949;-80
2023/07/07 05:58:56;;;;;;;;;;;16.20;99.90;;;;;;5023022;28;20779;-79
2023/07/07 06:01:23;;;;;;;;;;;16.30;99.90;;;;;;5025013;28;19917;-79
2023/07/07 06:03:48;;;;;;;;;;;16.40;99.90;;;;;;5025634;28;19931;-80
2023/07/07 06:06:14;;;;;;;;;;;16.50;99.90;;;;;;5001677;28;20369;-79
2023/07/07 06:08:42;;;;;;;;;;;16.60;99.90;;;;;;5025790;28;20441;-79
2023/07/07 06:11:08;;;;;;;;;;;16.70;99.90;;;;;;5022943;28;19920;-80
2023/07/07 06:13:44;;;;;;;;;;;16.70;99.90;;;;;;5024804;28;20353;-79
2023/07/07 06:16:15;;;;;;;;;;;16.90;99.90;;;;;;5039476;28;19917;-79
2023/07/07 06:18:45;;;;;;;;;;;16.90;99.90;;;;;;5025686;28;19982;-79
2023/07/07 06:21:13;;;;;;;;;;;17.00;99.90;;;;;;5001441;28;19912;-80
2023/07/07 06:23:39;;;;;;;;;;;17.10;99.90;;;;;;5007960;28;19923;-80
2023/07/07 06:26:09;;;;;;;;;;;17.10;99.90;;;;;;5007536;28;19974;-80
2023/07/07 06:28:37;;;;;;;;;;;17.20;99.90;;;;;;5002139;28;19917;-79
2023/07/07 06:31:02;;;;;;;;;;;17.30;99.90;;;;;;5039473;28;19959;-79
2023/07/07 06:33:34;;;;;;;;;;;17.40;99.90;;;;;;5006878;28;22377;-80
2023/07/07 06:36:02;;;;;;;;;;;17.40;99.90;;;;;;5000279;28;19913;-79
2023/07/07 06:38:30;;;;;;;;;;;17.50;99.90;;;;;;5000322;28;19913;-80
2023/07/07 06:40:58;;;;;;;;;;;17.70;99.90;;;;;;5000774;28;19989;-79
2023/07/07 06:43:25;;;;;;;;;;;17.70;99.90;;;;;;5039745;28;19913;-80
2023/07/07 06:45:53;;;;;;;;;;;17.80;99.90;;;;;;5023994;28;19908;-80
2023/07/07 06:48:19;;;;;;;;;;;17.90;99.90;;;;;;5024061;28;19932;-80
2023/07/07 06:50:46;;;;;;;;;;;18.00;99.90;;;;;;4990893;28;19932;-80
2023/07/07 06:53:11;;;;;;;;;;;18.00;99.90;;;;;;5004323;28;19917;-79
2023/07/07 06:55:40;;;;;;;;;;;18.10;99.90;;;;;;5020802;28;20422;-80
2023/07/07 06:58:07;;;;;;;;;;;18.10;99.90;;;;;;5023937;28;20074;-80
2023/07/07 07:00:32;;;;;;;;;;;18.20;99.90;;;;;;5000472;28;19924;-80
2023/07/07 07:02:58;;;;;;;;;;;18.30;99.90;;;;;;5001908;28;19931;-80
2023/07/07 07:05:24;;;;;;;;;;;18.40;99.90;;;;;;5000497;28;19909;-80
2023/07/07 07:07:50;;;;;;;;;;;18.50;99.90;;;;;;5023713;28;19920;-80
2023/07/07 07:10:15;;;;;;;;;;;18.60;99.90;;;;;;5023204;28;19986;-79
2023/07/07 07:12:42;;;;;;;;;;;18.60;99.90;;;;;;5039609;28;20337;-79
2023/07/07 07:15:09;;;;;;;;;;;18.70;99.90;;;;;;5024180;28;19916;-79
2023/07/07 07:17:35;;;;;;;;;;;18.80;99.90;;;;;;5001669;28;19996;-79
2023/07/07 07:20:00;;;;;;;;;;;18.90;99.90;;;;;;5004041;28;20457;-79
2023/07/07 07:22:26;;;;;;;;;;;19.00;99.90;;;;;;5023264;28;19909;-79
2023/07/07 07:24:52;;;;;;;;;;;19.10;99.90;;;;;;5000338;28;20314;-79
2023/07/07 07:27:17;;;;;;;;;;;19.20;99.90;;;;;;5000910;28;20285;-79
2023/07/07 07:29:43;;;;;;;;;;;19.30;99.90;;;;;;5002133;28;19916;-80
2023/07/07 07:32:09;;;;;;;;;;;19.40;99.90;;;;;;5036309;28;19948;-79
2023/07/07 07:34:34;;;;;;;;;;;19.40;99.90;;;;;;5024019;28;19917;-79
2023/07/07 07:37:01;;;;;;;;;;;19.60;99.90;;;;;;5037536;28;22038;-80
2023/07/07 07:39:28;;;;;;;;;;;19.60;99.90;;;;;;5022480;28;20361;-79
2023/07/07 07:41:54;;;;;;;;;;;19.70;99.90;;;;;;5037509;28;19913;-79
2023/07/07 07:44:21;;;;;;;;;;;19.70;99.90;;;;;;5020956;28;19948;-80
2023/07/07 07:46:47;;;;;;;;;;;19.80;99.90;;;;;;5000964;28;19917;-79
2023/07/07 07:49:13;;;;;;;;;;;19.90;99.90;;;;;;5005846;28;20349;-80
2023/07/07 07:51:40;;;;;;;;;;;20.00;99.90;;;;;;5022964;28;19917;-79
2023/07/07 07:54:07;;;;;;;;;;;20.10;99.90;;;;;;5022921;28;20780;-78
2023/07/07 07:56:33;;;;;;;;;;;20.20;99.90;;;;;;5000448;28;19963;-79
2023/07/07 07:58:59;;;;;;;;;;;20.40;99.90;;;;;;5022587;28;20728;-79
2023/07/07 08:01:28;;;;;;;;;;;20.50;99.90;;;;;;5027418;28;19913;-79
2023/07/07 08:03:54;;;;;;;;;;;20.50;99.90;;;;;;5032754;28;19913;-78
2023/07/07 08:06:20;;;;;;;;;;;20.60;99.90;;;;;;5015263;28;19913;-78
2023/07/07 08:08:46;;;;;;;;;;;20.70;99.90;;;;;;5034525;28;20361;-80
2023/07/07 08:11:13;;;;;;;;;;;20.80;99.90;;;;;;5004433;28;19951;-77
2023/07/07 08:13:39;;;;;;;;;;;20.90;99.90;;;;;;5002639;28;19917;-79
2023/07/07 08:16:08;;;;;;;;;;;21.00;99.90;;;;;;5001082;28;20124;-79
2023/07/07 08:18:37;;;;;;;;;;;21.10;99.90;;;;;;5022810;28;22278;-80
2023/07/07 08:21:03;;;;;;;;;;;21.20;99.90;;;;;;5039048;28;19913;-79
2023/07/07 08:23:29;;;;;;;;;;;21.20;99.90;;;;;;5005128;28;19913;-79
2023/07/07 08:25:54;;;;;;;;;;;21.20;99.90;;;;;;5005994;28;20109;-80
2023/07/07 08:28:21;;;;;;;;;;;21.30;99.90;;;;;;5019930;28;19920;-79
2023/07/07 08:30:46;;;;;;;;;;;21.30;99.90;;;;;;5022658;28;20373;-79
2023/07/07 08:33:12;;;;;;;;;;;21.40;99.90;;;;;;5023869;28;19949;-80
2023/07/07 08:35:38;;;;;;;;;;;21.40;99.90;;;;;;5003145;28;20647;-80
2023/07/07 08:38:06;;;;;;;;;;;21.40;99.90;;;;;;5001070;28;20328;-80
2023/07/07 08:40:35;;;;;;;;;;;21.50;99.90;;;;;;5022387;28;19913;-79
2023/07/07 08:43:01;;;;;;;;;;;21.60;99.90;;;;;;5022899;28;19920;-80
2023/07/07 08:45:27;;;;;;;;;;;21.70;99.90;;;;;;5004934;28;19913;-80
2023/07/07 08:48:02;;;;;;;;;;;21.80;99.90;;;;;;5021982;28;19919;-80
2023/07/07 08:50:46;;;;;;;;;;;21.90;99.90;;;;;;5019633;28;19952;-80
2023/07/07 08:53:27;;;;;;;;;;;22.00;99.90;;;;;;5023700;28;19909;-80
2023/07/07 08:56:11;;;;;;;;;;;22.20;99.90;;;;;;5037258;28;19913;-79
2023/07/07 08:58:46;;;;;;;;;;;22.30;99.90;;;;;;5021721;28;19983;-80
2023/07/07 09:01:30;;;;;;;;;;;22.40;99.90;;;;;;5002711;28;19913;-80
2023/07/07 09:03:55;;;;;;;;;;;22.50;99.90;;;;;;5015144;28;19917;-80
2023/07/07 09:06:34;;;;;;;;;;;22.50;99.90;;;;;;5018264;28;21900;-79
2023/07/07 09:09:07;;;;;;;;;;;22.60;99.90;;;;;;4979489;28;19989;-80
2023/07/07 09:12:02;;;;;;;;;;;22.70;99.90;;;;;;5000103;28;19934;-80
2023/07/07 09:14:28;;;;;;;;;;;22.90;99.90;;;;;;4945507;28;19911;-79
2023/07/07 09:16:59;;;;;;;;;;;23.10;99.90;;;;;;5001500;28;19967;-80
2023/07/07 09:19:43;;;;;;;;;;;23.20;99.90;;;;;;4998020;28;19917;-79
2023/07/07 09:22:15;;;;;;;;;;;23.30;99.90;;;;;;5000128;28;19917;-79
2023/07/07 09:25:00;;;;;;;;;;;23.50;99.90;;;;;;4985270;28;19992;-78
2023/07/07 09:27:34;;;;;;;;;;;23.60;99.90;;;;;;5001089;28;20661;-78
2023/07/07 09:30:11;;;;;;;;;;;23.70;99.90;;;;;;5015807;28;19909;-78
2023/07/07 09:32:37;;;;;;;;;;;23.80;99.90;;;;;;4979401;28;19913;-79
2023/07/07 09:35:04;;;;;;;;;;;23.90;99.90;;;;;;4984327;28;19914;-79
2023/07/07 09:37:48;;;;;;;;;;;24.10;99.90;;;;;;4984843;28;19917;-79
2023/07/07 09:40:17;;;;;;;;;;;24.90;99.90;;;;;;5017127;28;19983;-79
2023/07/07 09:42:49;;;;;;;;;;;26.10;99.90;;;;;;4985737;28;19913;-80
2023/07/07 09:45:37;;;;;;;;;;;27.10;99.90;;;;;;5002088;28;20243;-79
2023/07/07 09:48:08;;;;;;;;;;;28.00;99.90;;;;;;5001753;28;19913;-80
2023/07/07 09:50:34;;;;;;;;;;;28.80;99.90;;;;;;5013912;28;20385;-80
2023/07/07 09:53:08;;;;;;;;;;;29.20;99.90;;;;;;5016817;28;19945;-81
2023/07/07 09:55:35;;;;;;;;;;;29.60;99.90;;;;;;4979983;28;19964;-80
2023/07/07 09:58:13;;;;;;;;;;;30.10;99.90;;;;;;4990748;28;19921;-81
2023/07/07 10:00:40;;;;;;;;;;;30.30;99.90;;;;;;5017927;28;19935;-80
2023/07/07 10:03:15;;;;;;;;;;;30.50;99.90;;;;;;5034365;28;20378;-80
2023/07/07 10:05:41;;;;;;;;;;;30.50;98.90;;;;;;5003166;28;19909;-81
2023/07/07 10:08:09;;;;;;;;;;;30.70;99.70;;;;;;5020350;28;19916;-81
2023/07/07 10:10:35;;;;;;;;;;;31.10;99.90;;;;;;5014889;28;19925;-81
2023/07/07 10:13:01;;;;;;;;;;;31.50;99.50;;;;;;5020524;28;19940;-81
2023/07/07 10:15:26;;;;;;;;;;;31.90;99.70;;;;;;4999182;28;20361;-81
2023/07/07 10:17:58;;;;;;;;;;;32.20;99.40;;;;;;5003359;28;19920;-81
2023/07/07 10:20:26;;;;;;;;;;;32.40;99.50;;;;;;5020764;28;19919;-81
2023/07/07 10:22:52;;;;;;;;;;;32.40;98.70;;;;;;5020872;28;20373;-81
2023/07/07 10:25:18;;;;;;;;;;;32.60;97.90;;;;;;4998072;28;20011;-81
2023/07/07 10:27:50;;;;;;;;;;;32.80;97.70;;;;;;5036159;28;19964;-81
2023/07/07 10:30:15;;;;;;;;;;;32.90;97.90;;;;;;5019041;28;19921;-81
2023/07/07 10:32:42;;;;;;;;;;;33.20;97.80;;;;;;5021152;28;19909;-81
2023/07/07 10:35:09;;;;;;;;;;;33.40;97.00;;;;;;5018801;28;19921;-80
2023/07/07 10:37:38;;;;;;;;;;;33.40;95.90;;;;;;5018555;28;19912;-81
2023/07/07 10:40:05;;;;;;;;;;;33.30;95.10;;;;;;5003529;28;19917;-80
2023/07/07 10:42:31;;;;;;;;;;;33.20;95.30;;;;;;5022435;28;19909;-80
2023/07/07 10:45:02;;;;;;;;;;;33.20;96.00;;;;;;5002715;28;19909;-80
2023/07/07 10:47:31;;;;;;;;;;;33.40;94.00;;;;;;5024631;28;19920;-80
2023/07/07 10:49:58;;;;;;;;;;;33.50;94.80;;;;;;5023446;28;19913;-81
2023/07/07 10:52:42;;;;;;;;;;;33.60;94.20;;;;;;5038067;28;19909;-80
2023/07/07 10:55:27;;;;;;;;;;;33.90;94.60;;;;;;5019835;28;21712;-81
2023/07/07 10:57:58;;;;;;;;;;;34.00;94.40;;;;;;5020281;28;20415;-81
2023/07/07 11:00:27;;;;;;;;;;;34.00;93.40;;;;;;5023596;28;19917;-80
2023/07/07 11:03:07;;;;;;;;;;;34.00;93.90;;;;;;5003359;28;19920;-80
2023/07/07 11:05:51;;;;;;;;;;;33.90;93.40;;;;;;5022654;28;19948;-80
2023/07/07 11:08:29;;;;;;;;;;;33.70;91.40;;;;;;5023563;28;20416;-80
2023/07/07 11:11:19;;;;;;;;;;;33.40;92.50;;;;;;5007872;28;20008;-80
2023/07/07 11:13:50;;;;;;;;;;;33.80;92.70;;;;;;5038434;28;21347;-80
2023/07/07 11:16:35;;;;;;;;;;;34.20;92.30;;;;;;5038539;28;19920;-80
2023/07/07 11:19:19;;;;;;;;;;;34.30;90.60;;;;;;5023985;28;20272;-80
2023/07/07 11:21:52;;;;;;;;;;;34.00;91.80;;;;;;5021527;28;20356;-81
2023/07/07 11:24:18;;;;;;;;;;;34.00;91.00;;;;;;5038028;28;19970;-81
2023/07/07 11:26:56;;;;;;;;;;;34.00;89.60;;;;;;5000037;28;20427;-80
2023/07/07 11:29:45;;;;;;;;;;;33.90;90.90;;;;;;5024303;28;19909;-80
2023/07/07 11:32:23;;;;;;;;;;;34.20;91.30;;;;;;5001419;28;19959;-80
2023/07/07 11:34:48;;;;;;;;;;;34.60;90.70;;;;;;5005577;28;19909;-80
2023/07/07 11:37:28;;;;;;;;;;;35.10;90.50;;;;;;5023250;28;20435;-80
2023/07/07 11:40:05;;;;;;;;;;;35.30;90.00;;;;;;5021532;28;20278;-80
2023/07/07 11:42:40;;;;;;;;;;;35.30;87.80;;;;;;5023551;28;19999;-80
2023/07/07 11:45:28;;;;;;;;;;;35.20;89.00;;;;;;5023030;28;20304;-80
2023/07/07 11:47:55;;;;;;;;;;;35.40;87.60;;;;;;4995356;28;19952;-81
2023/07/07 11:50:38;;;;;;;;;;;35.80;86.60;;;;;;4999519;28;19921;-80
2023/07/07 11:53:04;;;;;;;;;;;36.10;86.30;;;;;;5038120;28;19924;-81
2023/07/07 11:55:29;;;;;;;;;;;36.30;87.30;;;;;;5001480;28;19913;-81
2023/07/07 11:58:30;;;;;;;;;;;36.30;87.40;;;;;;5002242;28;19920;-81
2023/07/07 12:01:13;;;;;;;;;;;36.40;88.30;;;;;;4971073;28;19992;-80
2023/07/07 12:03:44;;;;;;;;;;;36.30;85.80;;;;;;5020783;28;19919;-80
2023/07/07 12:06:16;;;;;;;;;;;36.10;84.60;;;;;;5001851;28;19917;-81
2023/07/07 12:08:47;;;;;;;;;;;36.00;85.70;;;;;;5023605;28;20646;-81
2023/07/07 12:11:14;;;;;;;;;;;36.20;85.20;;;;;;5020876;28;20462;-81
2023/07/07 12:13:56;;;;;;;;;;;36.40;84.00;;;;;;5019746;28;19913;-81
2023/07/07 12:16:23;;;;;;;;;;;36.60;84.20;;;;;;5000152;28;19952;-81
2023/07/07 12:18:58;;;;;;;;;;;36.70;86.10;;;;;;5036961;28;19920;-81
2023/07/07 12:21:26;;;;;;;;;;;36.60;85.20;;;;;;5019746;28;19921;-81
2023/07/07 12:24:01;;;;;;;;;;;36.80;84.80;;;;;;5020439;28;19965;-82
2023/07/07 12:26:31;;;;;;;;;;;36.60;83.80;;;;;;5001470;28;19999;-81
2023/07/07 12:29:01;;;;;;;;;;;36.50;81.30;;;;;;5017970;28;20803;-81
2023/07/07 12:31:30;;;;;;;;;;;36.50;83.40;;;;;;5006041;28;19916;-81
2023/07/07 12:33:56;;;;;;;;;;;36.50;83.00;;;;;;5021753;28;19963;-81
2023/07/07 12:36:25;;;;;;;;;;;36.40;81.80;;;;;;5038106;28;19997;-81
2023/07/07 12:38:54;;;;;;;;;;;36.40;80.70;;;;;;4998334;28;19979;-81
2023/07/07 12:41:22;;;;;;;;;;;36.60;80.70;;;;;;5003582;28;19909;-81
2023/07/07 12:44:08;;;;;;;;;;;36.80;80.80;;;;;;5022245;28;20285;-81
2023/07/07 12:46:35;;;;;;;;;;;37.10;80.30;;;;;;4998935;28;20364;-81
2023/07/07 12:49:16;;;;;;;;;;;36.90;79.90;;;;;;5021789;28;19920;-82
2023/07/07 12:51:45;;;;;;;;;;;36.80;79.40;;;;;;5021361;28;19925;-81
2023/07/07 12:54:32;;;;;;;;;;;37.00;78.30;;;;;;5035330;28;19917;-81
2023/07/07 12:57:03;;;;;;;;;;;37.00;78.50;;;;;;4997186;28;20379;-81
2023/07/07 12:59:40;;;;;;;;;;;36.80;79.30;;;;;;5022012;28;19979;-82
2023/07/07 13:02:25;;;;;;;;;;;36.80;79.40;;;;;;5007149;28;19917;-81
2023/07/07 13:04:58;;;;;;;;;;;36.80;78.40;;;;;;5001177;28;19931;-82
2023/07/07 13:07:31;;;;;;;;;;;36.60;79.30;;;;;;4999672;28;19912;-81
2023/07/07 13:09:57;;;;;;;;;;;36.60;79.30;;;;;;5021998;28;19913;-81
2023/07/07 13:12:40;;;;;;;;;;;36.80;78.40;;;;;;5000817;28;20281;-82
2023/07/07 13:15:11;;;;;;;;;;;37.00;78.40;;;;;;5019964;28;19952;-79
2023/07/07 13:17:39;;;;;;;;;;;37.20;79.10;;;;;;5023326;28;19913;-81
2023/07/07 13:20:05;;;;;;;;;;;37.20;78.50;;;;;;4999989;28;19959;-81
2023/07/07 13:22:51;;;;;;;;;;;37.40;78.00;;;;;;5019144;28;19913;-81
2023/07/07 13:25:19;;;;;;;;;;;37.60;77.50;;;;;;5016098;28;20003;-81
2023/07/07 13:27:45;;;;;;;;;;;37.80;76.40;;;;;;5019872;28;19913;-81
2023/07/07 13:30:18;;;;;;;;;;;37.90;76.50;;;;;;5019225;28;20000;-79
2023/07/07 13:32:44;;;;;;;;;;;37.90;77.90;;;;;;5002932;28;19921;-80
2023/07/07 13:35:10;;;;;;;;;;;37.80;77.60;;;;;;4997568;28;20427;-80
2023/07/07 13:37:36;;;;;;;;;;;37.70;77.90;;;;;;5018711;28;19924;-80
2023/07/07 13:40:03;;;;;;;;;;;37.80;76.70;;;;;;5014689;28;19917;-80
2023/07/07 13:42:29;;;;;;;;;;;37.90;76.30;;;;;;5020688;28;20349;-80
2023/07/07 13:45:07;;;;;;;;;;;37.90;77.00;;;;;;5019047;28;20427;-80
2023/07/07 13:47:38;;;;;;;;;;;37.80;77.60;;;;;;5016693;28;19909;-79
2023/07/07 13:50:07;;;;;;;;;;;37.70;77.70;;;;;;5029201;28;19916;-79
2023/07/07 13:52:33;;;;;;;;;;;37.70;77.10;;;;;;5035014;28;19967;-81
2023/07/07 13:55:01;;;;;;;;;;;37.70;78.50;;;;;;5034068;28;19924;-80
2023/07/07 13:57:31;;;;;;;;;;;37.50;76.80;;;;;;5030299;28;19983;-80
2023/07/07 14:00:00;;;;;;;;;;;37.20;75.40;;;;;;5017927;28;19909;-81
2023/07/07 14:02:27;;;;;;;;;;;37.00;76.80;;;;;;5019885;28;19917;-81
2023/07/07 14:04:58;;;;;;;;;;;37.00;76.10;;;;;;5019282;28;19967;-81
2023/07/07 14:07:24;;;;;;;;;;;37.00;76.80;;;;;;5003233;28;19913;-81
2023/07/07 14:09:53;;;;;;;;;;;36.90;76.80;;;;;;5022120;28;20788;-80
2023/07/07 14:12:27;;;;;;;;;;;36.80;76.40;;;;;;5019299;28;19917;-80
2023/07/07 14:14:55;;;;;;;;;;;36.70;77.30;;;;;;5020946;28;19919;-80
2023/07/07 14:17:35;;;;;;;;;;;36.70;78.10;;;;;;5025442;28;19967;-80
2023/07/07 14:20:09;;;;;;;;;;;36.80;78.10;;;;;;5001682;28;19920;-80
2023/07/07 14:22:40;;;;;;;;;;;37.00;76.50;;;;;;5007603;28;19968;-81
2023/07/07 14:25:06;;;;;;;;;;;37.10;76.10;;;;;;5007020;28;19913;-81
2023/07/07 14:27:32;;;;;;;;;;;37.10;77.20;;;;;;5006174;28;19920;-80